createdAt,value
2022-07-27T00:01:00.945Z,23.64
2022-07-27T00:03:28.692Z,23.63
2022-07-27T00:05:57.968Z,23.81
2022-07-27T00:08:25.682Z,23.78
2022-07-27T00:10:53.834Z,23.89
2022-07-27T00:13:21.582Z,23.77
2022-07-27T00:15:49.586Z,23.72
2022-07-27T00:18:17.399Z,23.67
2022-07-27T00:20:45.191Z,23.65
2022-07-27T00:23:14.451Z,23.58
2022-07-27T00:25:42.130Z,23.52
2022-07-27T00:28:09.841Z,23.41
2022-07-27T00:30:37.665Z,23.28
2022-07-27T00:33:06.098Z,23.23
2022-07-27T00:35:34.299Z,23.27
2022-07-27T00:38:03.737Z,23.28
2022-07-27T00:40:32.876Z,23.50
2022-07-27T00:43:00.594Z,23.41
2022-07-27T00:45:28.257Z,23.40
2022-07-27T00:47:56.030Z,23.72
2022-07-27T00:50:24.116Z,23.57
2022-07-27T00:52:52.794Z,23.34
2022-07-27T00:55:20.684Z,23.24
2022-07-27T00:57:58.449Z,23.18
2022-07-27T01:00:27.563Z,23.17
2022-07-27T01:02:57.381Z,23.10
2022-07-27T01:05:36.386Z,23.12
2022-07-27T01:08:06.827Z,23.10
2022-07-27T01:10:35.157Z,23.31
2022-07-27T01:13:04.368Z,23.22
2022-07-27T01:15:35.189Z,23.37
2022-07-27T01:18:11.648Z,23.32
2022-07-27T01:20:40.965Z,23.25
2022-07-27T01:23:10.059Z,23.18
2022-07-27T01:25:39.565Z,23.14
2022-07-27T01:28:07.242Z,23.23
2022-07-27T01:30:35.571Z,23.34
2022-07-27T01:33:04.304Z,23.20
2022-07-27T01:35:32.261Z,23.17
2022-07-27T01:38:00.779Z,23.14
2022-07-27T01:40:30.675Z,23.14
2022-07-27T01:42:58.505Z,23.12
2022-07-27T01:45:26.550Z,23.05
2022-07-27T01:47:54.384Z,22.98
2022-07-27T01:50:22.124Z,23.09
2022-07-27T01:52:49.799Z,23.08
2022-07-27T01:55:17.459Z,23.01
2022-07-27T01:57:46.535Z,22.90
2022-07-27T02:00:14.673Z,22.89
2022-07-27T02:02:42.923Z,22.79
2022-07-27T02:05:12.453Z,22.77
2022-07-27T02:07:40.868Z,22.71
2022-07-27T02:10:09.955Z,22.81
2022-07-27T02:12:36.763Z,22.92
2022-07-27T02:15:13.432Z,23.10
2022-07-27T02:17:43.995Z,23.02
2022-07-27T02:20:14.723Z,22.97
2022-07-27T02:22:42.750Z,22.97
2022-07-27T02:25:11.671Z,22.93
2022-07-27T02:27:40.224Z,22.78
2022-07-27T02:30:11.098Z,22.71
2022-07-27T02:32:38.921Z,22.65
2022-07-27T02:35:19.700Z,22.71
2022-07-27T02:37:48.429Z,22.64
2022-07-27T02:40:17.281Z,22.98
2022-07-27T02:42:45.532Z,22.92
2022-07-27T02:45:14.780Z,22.90
2022-07-27T02:47:42.724Z,22.88
2022-07-27T02:50:11.027Z,23.07
2022-07-27T02:52:39.007Z,23.08
2022-07-27T02:55:07.881Z,23.00
2022-07-27T02:57:37.944Z,23.03
2022-07-27T03:00:06.918Z,23.38
2022-07-27T03:02:36.565Z,23.29
2022-07-27T03:05:05.255Z,23.37
2022-07-27T03:07:32.995Z,23.43
2022-07-27T03:10:00.756Z,23.44
2022-07-27T03:12:28.421Z,23.28
2022-07-27T03:14:56.115Z,23.16
2022-07-27T03:17:23.803Z,23.06
2022-07-27T03:19:52.898Z,23.37
2022-07-27T03:22:20.585Z,23.23
2022-07-27T03:24:48.333Z,23.16
2022-07-27T03:27:16.867Z,23.08
2022-07-27T03:29:46.251Z,23.04
2022-07-27T03:32:13.935Z,23.18
2022-07-27T03:40:33.079Z,23.46
2022-07-27T03:43:01.083Z,23.31
2022-07-27T03:45:29.335Z,23.08
2022-07-27T03:47:58.024Z,23.00
2022-07-27T03:50:25.779Z,22.65
2022-07-27T03:52:54.873Z,22.49
2022-07-27T03:55:22.906Z,22.53
2022-07-27T03:57:52.392Z,22.52
2022-07-27T04:00:20.339Z,22.57
2022-07-27T04:02:48.115Z,22.69
2022-07-27T04:05:15.962Z,22.72
2022-07-27T04:07:43.661Z,22.67
2022-07-27T04:10:13.303Z,22.52
2022-07-27T04:12:41.798Z,22.43
2022-07-27T04:15:10.124Z,22.36
2022-07-27T04:17:56.350Z,22.41
2022-07-27T04:20:25.352Z,22.42
2022-07-27T04:22:53.124Z,22.46
2022-07-27T04:25:22.388Z,22.38
2022-07-27T04:27:50.439Z,22.36
2022-07-27T04:30:18.416Z,22.25
2022-07-27T04:32:46.142Z,22.23
2022-07-27T04:35:13.863Z,22.35
2022-07-27T04:37:41.662Z,22.42
2022-07-27T04:40:32.368Z,22.36
2022-07-27T04:43:00.416Z,22.33
2022-07-27T04:45:28.385Z,22.20
2022-07-27T04:47:56.086Z,22.17
2022-07-27T04:50:24.172Z,22.34
2022-07-27T04:52:51.913Z,22.45
2022-07-27T04:55:19.600Z,22.52
2022-07-27T04:57:48.634Z,22.41
2022-07-27T05:00:16.970Z,22.33
2022-07-27T05:02:44.703Z,22.30
2022-07-27T05:05:12.387Z,22.39
2022-07-27T05:07:40.094Z,22.30
2022-07-27T05:10:08.480Z,22.14
2022-07-27T05:12:36.240Z,22.12
2022-07-27T05:15:06.104Z,22.12
2022-07-27T05:17:33.964Z,22.10
2022-07-27T05:20:01.693Z,21.99
2022-07-27T05:22:29.392Z,22.00
2022-07-27T05:24:57.086Z,21.99
2022-07-27T05:27:24.773Z,22.14
2022-07-27T05:29:52.609Z,22.39
2022-07-27T05:32:22.063Z,22.58
2022-07-27T05:34:49.784Z,22.55
2022-07-27T05:37:17.713Z,22.55
2022-07-27T05:39:45.370Z,22.47
2022-07-27T05:42:13.094Z,22.36
2022-07-27T05:44:40.853Z,22.30
2022-07-27T05:47:11.613Z,22.26
2022-07-27T05:49:40.796Z,22.25
2022-07-27T05:52:08.525Z,22.32
2022-07-27T05:54:37.757Z,22.33
2022-07-27T05:57:05.810Z,22.17
2022-07-27T05:59:33.563Z,22.17
2022-07-27T06:02:01.283Z,22.26
2022-07-27T06:04:29.004Z,22.27
2022-07-27T06:07:15.463Z,22.37
2022-07-27T06:09:43.308Z,22.46
2022-07-27T06:12:11.063Z,22.53
2022-07-27T06:14:38.805Z,22.62
2022-07-27T06:17:07.580Z,22.63
2022-07-27T06:19:39.513Z,22.73
2022-07-27T06:22:08.577Z,22.62
2022-07-27T06:24:36.485Z,22.84
2022-07-27T06:27:04.220Z,22.95
2022-07-27T06:29:31.955Z,22.91
2022-07-27T06:31:59.789Z,22.78
2022-07-27T06:34:27.616Z,22.61
2022-07-27T06:36:57.009Z,22.59
2022-07-27T06:39:26.133Z,22.59
2022-07-27T06:41:58.080Z,22.62
2022-07-27T06:44:26.220Z,22.59
2022-07-27T06:46:53.956Z,22.63
2022-07-27T06:49:21.822Z,22.67
2022-07-27T06:51:49.542Z,22.75
2022-07-27T06:54:17.223Z,22.78
2022-07-27T06:56:46.697Z,22.81
2022-07-27T06:59:14.893Z,22.83
2022-07-27T07:01:48.503Z,22.87
2022-07-27T07:04:16.728Z,22.90
2022-07-27T07:06:44.825Z,22.92
2022-07-27T07:09:12.912Z,23.36
2022-07-27T07:11:40.934Z,23.38
2022-07-27T07:14:11.709Z,23.29
2022-07-27T07:16:39.502Z,23.29
2022-07-27T07:19:07.235Z,23.23
2022-07-27T07:21:34.946Z,23.24
2022-07-27T07:24:02.705Z,23.41
2022-07-27T07:26:33.773Z,23.51
2022-07-27T07:29:01.516Z,23.40
2022-07-27T07:31:30.714Z,23.50
2022-07-27T07:33:59.637Z,23.49
2022-07-27T07:36:27.421Z,23.48
2022-07-27T07:38:56.221Z,23.89
2022-07-27T07:41:24.413Z,24.08
2022-07-27T07:43:52.416Z,23.89
2022-07-27T07:46:24.554Z,23.82
2022-07-27T07:48:56.756Z,23.88
2022-07-27T07:54:18.462Z,23.93
2022-07-27T07:56:46.270Z,24.27
2022-07-27T07:59:16.892Z,24.20
2022-07-27T08:01:45.173Z,24.05
2022-07-27T08:04:20.152Z,24.26
2022-07-27T08:06:47.906Z,24.25
2022-07-27T08:09:16.997Z,24.33
2022-07-27T08:11:45.288Z,24.20
2022-07-27T08:14:13.033Z,24.17
2022-07-27T08:16:40.928Z,24.10
2022-07-27T08:19:09.644Z,24.14
2022-07-27T08:21:38.821Z,24.24
2022-07-27T08:24:07.117Z,24.33
2022-07-27T08:26:34.831Z,24.44
2022-07-27T08:29:11.353Z,24.27
2022-07-27T08:31:52.913Z,24.23
2022-07-27T08:34:21.223Z,24.40
2022-07-27T08:36:50.314Z,24.28
2022-07-27T08:39:52.310Z,24.15
2022-07-27T08:42:09.766Z,24.24
2022-07-27T08:44:40.701Z,24.22
2022-07-27T08:47:10.650Z,24.27
2022-07-27T08:49:43.602Z,24.32
2022-07-27T08:52:13.434Z,24.24
2022-07-27T08:54:42.681Z,24.18
2022-07-27T08:57:11.705Z,24.48
2022-07-27T08:59:39.552Z,24.44
2022-07-27T09:02:12.510Z,24.37
2022-07-27T09:04:41.219Z,24.27
2022-07-27T09:07:09.171Z,24.20
2022-07-27T09:09:46.931Z,24.13
2022-07-27T09:12:14.728Z,24.14
2022-07-27T09:14:43.546Z,24.14
2022-07-27T09:17:47.870Z,24.18
2022-07-27T09:20:17.660Z,24.21
2022-07-27T09:22:50.777Z,24.37
2022-07-27T09:25:33.056Z,24.59
2022-07-27T09:28:09.367Z,24.58
2022-07-27T09:30:43.092Z,24.78
2022-07-27T09:33:11.176Z,24.67
2022-07-27T09:35:39.607Z,24.55
2022-07-27T09:38:20.915Z,24.51
2022-07-27T09:40:59.795Z,24.50
2022-07-27T09:46:16.842Z,25.01
2022-07-27T09:48:44.698Z,24.90
2022-07-27T09:51:57.738Z,24.84
2022-07-27T09:54:08.913Z,24.79
2022-07-27T09:56:38.220Z,24.79
2022-07-27T09:59:05.920Z,24.76
2022-07-27T10:01:42.255Z,24.78
2022-07-27T10:04:15.125Z,24.85
2022-07-27T10:07:01.559Z,24.99
2022-07-27T10:09:31.663Z,25.18
2022-07-27T10:12:02.016Z,25.15
2022-07-27T10:14:29.815Z,25.11
2022-07-27T10:16:58.166Z,24.94
2022-07-27T10:19:32.885Z,24.83
2022-07-27T10:22:01.756Z,24.82
2022-07-27T10:24:32.793Z,24.79
2022-07-27T10:27:19.921Z,25.26
2022-07-27T10:29:48.613Z,25.32
2022-07-27T10:32:24.806Z,25.14
2022-07-27T10:34:52.841Z,25.02
2022-07-27T10:37:26.133Z,25.09
2022-07-27T10:40:16.071Z,25.03
2022-07-27T10:42:53.585Z,25.22
2022-07-27T10:45:22.752Z,25.19
2022-07-27T10:47:52.234Z,25.33
2022-07-27T10:50:31.919Z,25.21
2022-07-27T10:53:08.158Z,25.15
2022-07-27T10:55:52.732Z,25.11
2022-07-27T10:58:47.958Z,25.41
2022-07-27T11:04:12.758Z,25.35
2022-07-27T11:07:04.995Z,25.29
2022-07-27T11:12:29.906Z,25.27
2022-07-27T11:15:05.561Z,25.36
2022-07-27T11:17:57.560Z,25.35
2022-07-27T11:20:23.943Z,25.25
2022-07-27T11:25:39.898Z,25.25
2022-07-27T11:28:08.316Z,25.28
2022-07-27T11:30:37.556Z,25.36
2022-07-27T11:33:07.178Z,25.34
2022-07-27T11:35:35.313Z,25.35
2022-07-27T11:38:07.201Z,25.33
2022-07-27T11:43:38.685Z,25.42
2022-07-27T11:46:16.687Z,25.65
2022-07-27T11:49:06.072Z,25.59
2022-07-27T11:51:35.882Z,25.56
2022-07-27T11:54:07.972Z,25.52
2022-07-27T11:56:37.600Z,25.50
2022-07-27T11:59:08.217Z,25.49
2022-07-27T12:01:42.461Z,25.73
2022-07-27T12:04:20.011Z,25.68
2022-07-27T12:06:55.141Z,25.79
2022-07-27T12:09:23.852Z,25.67
2022-07-27T12:11:58.481Z,25.68
2022-07-27T12:14:35.706Z,25.69
2022-07-27T12:17:22.763Z,25.85
2022-07-27T12:20:02.361Z,25.79
2022-07-27T12:22:34.867Z,25.90
2022-07-27T12:25:09.922Z,25.82
2022-07-27T12:27:56.196Z,25.91
2022-07-27T12:30:33.140Z,25.84
2022-07-27T12:33:03.849Z,25.97
2022-07-27T12:35:37.415Z,25.81
2022-07-27T12:38:08.370Z,25.74
2022-07-27T12:40:44.290Z,25.86
2022-07-27T12:43:16.787Z,25.83
2022-07-27T12:45:45.089Z,25.81
2022-07-27T12:48:16.749Z,25.80
2022-07-27T12:50:46.569Z,25.78
2022-07-27T12:53:16.222Z,25.80
2022-07-27T12:55:45.140Z,25.83
2022-07-27T12:58:14.430Z,25.84
2022-07-27T13:00:42.533Z,25.84
2022-07-27T13:03:10.632Z,25.95
2022-07-27T13:05:39.707Z,25.82
2022-07-27T13:08:08.397Z,25.82
2022-07-27T13:10:37.457Z,25.95
2022-07-27T13:13:06.095Z,25.84
2022-07-27T13:15:34.368Z,25.77
2022-07-27T13:18:02.066Z,25.71
2022-07-27T13:20:29.983Z,25.74
2022-07-27T13:22:59.098Z,25.87
2022-07-27T13:25:26.799Z,25.82
2022-07-27T13:27:55.162Z,25.86
2022-07-27T13:30:24.480Z,25.83
2022-07-27T13:32:52.202Z,25.99
2022-07-27T13:35:20.337Z,26.05
2022-07-27T13:37:48.308Z,25.94
2022-07-27T13:40:17.675Z,26.03
2022-07-27T13:42:45.576Z,26.01
2022-07-27T13:45:13.305Z,25.96
2022-07-27T13:47:42.682Z,26.12
2022-07-27T13:50:18.313Z,26.34
2022-07-27T13:52:46.811Z,26.51
2022-07-27T13:55:15.229Z,26.73
2022-07-27T13:57:44.784Z,26.73
2022-07-27T14:00:14.006Z,26.69
2022-07-27T14:02:42.067Z,26.87
2022-07-27T14:05:13.022Z,26.72
2022-07-27T14:07:42.880Z,26.67
2022-07-27T14:10:30.268Z,26.80
2022-07-27T14:13:08.492Z,26.87
2022-07-27T14:15:55.664Z,26.69
2022-07-27T14:18:25.724Z,26.52
2022-07-27T14:20:54.156Z,26.56
2022-07-27T14:23:22.200Z,26.50
2022-07-27T14:25:50.005Z,26.50
2022-07-27T14:28:19.196Z,26.25
2022-07-27T14:30:47.154Z,26.13
2022-07-27T14:33:14.924Z,26.29
2022-07-27T14:35:42.985Z,26.14
2022-07-27T14:38:11.264Z,26.12
2022-07-27T14:40:39.647Z,26.17
2022-07-27T14:43:07.902Z,26.44
2022-07-27T14:45:44.721Z,26.43
2022-07-27T14:48:21.032Z,26.48
2022-07-27T14:50:53.202Z,26.56
2022-07-27T14:53:21.040Z,26.68
2022-07-27T14:55:48.796Z,26.72
2022-07-27T14:58:16.979Z,26.93
2022-07-27T15:00:46.167Z,27.04
2022-07-27T15:03:15.154Z,26.87
2022-07-27T15:05:50.505Z,26.78
2022-07-27T15:08:19.169Z,26.65
2022-07-27T15:10:47.340Z,26.72
2022-07-27T15:13:15.541Z,26.83
2022-07-27T15:15:43.464Z,26.87
2022-07-27T15:18:12.511Z,26.78
2022-07-27T15:20:40.424Z,26.73
2022-07-27T15:23:08.108Z,26.95
2022-07-27T15:25:35.805Z,26.69
2022-07-27T15:28:03.593Z,26.67
2022-07-27T15:30:37.918Z,26.59
2022-07-27T15:33:06.398Z,26.54
2022-07-27T15:35:35.854Z,26.62
2022-07-27T15:38:03.668Z,26.54
2022-07-27T15:40:41.638Z,26.44
2022-07-27T15:43:11.782Z,26.32
2022-07-27T15:45:40.223Z,26.48
2022-07-27T15:48:09.811Z,26.43
2022-07-27T15:50:40.348Z,26.45
2022-07-27T15:53:08.614Z,26.35
2022-07-27T15:55:37.512Z,26.47
2022-07-27T15:58:05.969Z,26.36
2022-07-27T16:00:39.150Z,26.39
2022-07-27T16:03:08.180Z,26.48
2022-07-27T16:05:35.991Z,26.50
2022-07-27T16:08:05.611Z,26.71
2022-07-27T16:10:33.371Z,26.72
2022-07-27T16:13:01.420Z,26.77
2022-07-27T16:15:43.333Z,26.80
2022-07-27T16:18:11.113Z,26.74
2022-07-27T16:20:39.052Z,26.69
2022-07-27T16:23:18.734Z,26.58
2022-07-27T16:26:07.540Z,26.75
2022-07-27T16:28:38.668Z,26.91
2022-07-27T16:31:07.504Z,26.85
2022-07-27T16:33:36.685Z,26.70
2022-07-27T16:36:05.400Z,26.67
2022-07-27T16:38:34.655Z,26.81
2022-07-27T16:41:05.573Z,26.94
2022-07-27T16:43:38.049Z,26.95
2022-07-27T16:46:07.152Z,26.99
2022-07-27T16:48:42.508Z,26.93
2022-07-27T16:51:12.548Z,27.04
2022-07-27T16:53:43.470Z,26.96
2022-07-27T16:56:11.340Z,27.07
2022-07-27T16:58:39.893Z,27.12
2022-07-27T17:01:08.463Z,27.11
2022-07-27T17:03:36.258Z,26.89
2022-07-27T17:06:06.625Z,26.77
2022-07-27T17:08:35.548Z,26.80
2022-07-27T17:11:06.284Z,26.75
2022-07-27T17:13:34.771Z,26.75
2022-07-27T17:16:02.768Z,26.80
2022-07-27T17:18:35.503Z,26.84
2022-07-27T17:21:07.356Z,26.75
2022-07-27T17:23:38.072Z,26.81
2022-07-27T17:26:08.730Z,26.94
2022-07-27T17:28:39.156Z,26.95
2022-07-27T17:31:09.879Z,26.88
2022-07-27T17:33:38.707Z,26.84
2022-07-27T17:36:12.271Z,26.99
2022-07-27T17:38:42.335Z,27.18
2022-07-27T17:41:11.481Z,27.01
2022-07-27T17:43:39.540Z,27.08
2022-07-27T17:46:07.904Z,26.95
2022-07-27T17:48:36.223Z,26.72
2022-07-27T17:51:04.060Z,26.55
2022-07-27T17:53:31.809Z,26.40
2022-07-27T17:56:00.602Z,26.39
2022-07-27T17:58:30.610Z,26.39
2022-07-27T18:00:58.957Z,26.47
2022-07-27T18:03:26.898Z,26.73
2022-07-27T18:05:54.980Z,26.68
2022-07-27T18:08:22.849Z,26.45
2022-07-27T18:10:51.456Z,26.54
2022-07-27T18:13:19.538Z,26.42
2022-07-27T18:15:48.656Z,26.35
2022-07-27T18:18:17.038Z,26.22
2022-07-27T18:20:46.182Z,26.21
2022-07-27T18:23:14.120Z,26.07
2022-07-27T18:25:42.234Z,26.03
2022-07-27T18:28:09.953Z,25.97
2022-07-27T18:30:37.875Z,25.99
2022-07-27T18:33:06.939Z,25.95
2022-07-27T18:35:35.099Z,25.96
2022-07-27T18:38:04.444Z,25.89
2022-07-27T18:40:32.219Z,25.88
2022-07-27T18:42:59.891Z,25.83
2022-07-27T18:45:34.754Z,25.83
2022-07-27T18:48:03.097Z,25.72
2022-07-27T18:50:35.720Z,25.63
2022-07-27T18:53:06.990Z,25.55
2022-07-27T18:55:34.718Z,25.49
2022-07-27T18:58:02.445Z,25.47
2022-07-27T19:00:30.796Z,25.41
2022-07-27T19:02:58.984Z,25.39
2022-07-27T19:05:40.515Z,25.37
2022-07-27T19:08:13.806Z,25.35
2022-07-27T19:10:42.523Z,25.30
2022-07-27T19:13:11.152Z,25.28
2022-07-27T19:15:39.921Z,25.27
2022-07-27T19:18:08.379Z,25.25
2022-07-27T19:20:38.657Z,25.20
2022-07-27T19:23:06.476Z,25.23
2022-07-27T19:25:35.549Z,25.37
2022-07-27T19:28:03.680Z,25.29
2022-07-27T19:30:31.561Z,25.21
2022-07-27T19:32:59.389Z,25.15
2022-07-27T19:35:27.278Z,25.16
2022-07-27T19:37:55.070Z,25.02
2022-07-27T19:43:15.730Z,24.84
2022-07-27T19:45:43.630Z,24.84
2022-07-27T19:48:11.837Z,24.74
2022-07-27T19:50:39.813Z,24.74
2022-07-27T19:53:10.779Z,24.85
2022-07-27T19:55:38.769Z,25.00
2022-07-27T19:58:06.503Z,24.99
2022-07-27T20:00:35.591Z,24.78
2022-07-27T20:03:03.467Z,24.83
2022-07-27T20:05:31.365Z,24.77
2022-07-27T20:07:59.014Z,24.69
2022-07-27T20:10:27.061Z,24.66
2022-07-27T20:12:54.698Z,24.64
2022-07-27T20:15:22.782Z,24.71
2022-07-27T20:17:52.223Z,24.62
2022-07-27T20:20:20.255Z,24.76
2022-07-27T20:22:48.436Z,24.61
2022-07-27T20:25:16.220Z,24.64
2022-07-27T20:27:43.934Z,24.51
2022-07-27T20:30:14.497Z,24.68
2022-07-27T20:32:42.223Z,24.65
2022-07-27T20:35:11.731Z,24.58
2022-07-27T20:37:39.732Z,24.62
2022-07-27T20:40:11.399Z,24.41
2022-07-27T20:42:40.189Z,24.32
2022-07-27T20:45:11.023Z,24.19
2022-07-27T20:47:39.116Z,24.31
2022-07-27T20:50:08.515Z,24.11
2022-07-27T20:52:37.651Z,24.06
2022-07-27T20:55:06.437Z,24.25
2022-07-27T20:57:34.180Z,24.21
2022-07-27T21:00:01.964Z,24.07
2022-07-27T21:02:29.707Z,24.14
2022-07-27T21:04:58.256Z,24.04
2022-07-27T21:07:26.807Z,24.03
2022-07-27T21:09:55.857Z,23.89
2022-07-27T21:12:23.661Z,23.78
2022-07-27T21:14:51.353Z,23.68
2022-07-27T21:17:19.005Z,23.64
2022-07-27T21:19:46.724Z,23.70
2022-07-27T21:22:14.498Z,23.58
2022-07-27T21:24:42.194Z,23.70
2022-07-27T21:27:13.450Z,23.72
2022-07-27T21:29:41.141Z,23.63
2022-07-27T21:32:08.974Z,23.56
2022-07-27T21:34:36.669Z,23.51
2022-07-27T21:37:04.418Z,23.52
2022-07-27T21:39:32.176Z,23.56
2022-07-27T21:42:02.116Z,23.54
2022-07-27T21:44:31.718Z,23.41
2022-07-27T21:46:59.459Z,23.43
2022-07-27T21:49:33.954Z,23.54
2022-07-27T21:52:02.701Z,23.44
2022-07-27T21:54:30.478Z,23.40
2022-07-27T21:56:58.171Z,23.55
2022-07-27T21:59:25.882Z,23.44
2022-07-27T22:01:54.901Z,23.72
2022-07-27T22:04:23.144Z,23.54
2022-07-27T22:06:50.984Z,23.55
2022-07-27T22:09:20.072Z,23.34
2022-07-27T22:11:47.827Z,23.49
2022-07-27T22:14:16.098Z,23.39
2022-07-27T22:16:44.418Z,23.31
2022-07-27T22:19:14.108Z,23.29
2022-07-27T22:21:41.883Z,23.21
2022-07-27T22:24:09.887Z,23.20
2022-07-27T22:26:37.851Z,23.11
2022-07-27T22:29:05.691Z,23.09
2022-07-27T22:31:33.509Z,23.01
2022-07-27T22:34:01.200Z,23.04
2022-07-27T22:36:30.573Z,23.03
2022-07-27T22:38:58.263Z,23.08
2022-07-27T22:41:26.094Z,23.18
2022-07-27T22:43:53.783Z,23.09
2022-07-27T22:46:25.647Z,22.96
2022-07-27T22:48:53.863Z,22.85
2022-07-27T22:51:21.784Z,22.77
2022-07-27T22:53:50.823Z,22.71
2022-07-27T22:56:18.976Z,22.81
2022-07-27T22:58:46.709Z,22.90
2022-07-27T23:01:38.410Z,22.81
2022-07-27T23:04:02.343Z,22.69
2022-07-27T23:06:30.058Z,22.75
2022-07-27T23:08:59.056Z,22.70
2022-07-27T23:11:26.786Z,22.75
2022-07-27T23:13:54.470Z,22.68
2022-07-27T23:16:22.301Z,22.59
2022-07-27T23:18:50.063Z,22.53
2022-07-27T23:21:17.813Z,22.49
2022-07-27T23:23:53.535Z,22.71
2022-07-27T23:26:26.104Z,22.55
2022-07-27T23:28:55.744Z,22.46
2022-07-27T23:31:24.118Z,22.54
2022-07-27T23:33:51.866Z,22.41
2022-07-27T23:36:19.572Z,22.28
2022-07-27T23:38:47.634Z,22.32
2022-07-27T23:41:16.645Z,22.27
2022-07-27T23:43:46.263Z,22.38
2022-07-27T23:46:14.542Z,22.70
2022-07-27T23:48:42.360Z,22.57
2022-07-27T23:51:10.282Z,22.62
2022-07-27T23:53:38.255Z,22.83
2022-07-27T23:56:06.459Z,22.72
2022-07-27T23:58:34.135Z,22.75
